sensor_id;sensor_type;location;lat;lon;timestamp;pressure;altitude;pressure_sealevel;temperature;humidity
47530;BME280;33272;51.922;7.730;2023-05-24T00:00:28;144406.50;;;7.69;100.00
47530;BME280;33272;51.922;7.730;2023-05-24T00:02:56;144397.66;;;7.65;100.00
47530;BME280;33272;51.922;7.730;2023-05-24T00:05:23;144387.53;;;7.61;100.00
47530;BME280;33272;51.922;7.730;2023-05-24T00:07:51;144390.06;;;7.62;100.00
47530;BME280;33272;51.922;7.730;2023-05-24T00:10:18;144390.06;;;7.62;100.00
47530;BME280;33272;51.922;7.730;2023-05-24T00:12:45;144385.03;;;7.60;100.00
47530;BME280;33272;51.922;7.730;2023-05-24T00:15:12;144382.47;;;7.59;100.00
47530;BME280;33272;51.922;7.730;2023-05-24T00:17:39;144381.22;;;7.58;100.00
47530;BME280;33272;51.922;7.730;2023-05-24T00:20:08;144376.13;;;7.56;100.00
47530;BME280;33272;51.922;7.730;2023-05-24T00:22:37;144366.03;;;7.52;100.00
47530;BME280;33272;51.922;7.730;2023-05-24T00:25:07;144357.19;;;7.49;100.00
47530;BME280;33272;51.922;7.730;2023-05-24T00:27:34;144349.63;;;7.46;100.00
47530;BME280;33272;51.922;7.730;2023-05-24T00:30:02;144363.53;;;7.51;100.00
47530;BME280;33272;51.922;7.730;2023-05-24T00:32:29;144343.28;;;7.43;100.00
47530;BME280;33272;51.922;7.730;2023-05-24T00:34:56;144358.47;;;7.49;100.00
47530;BME280;33272;51.922;7.730;2023-05-24T00:37:23;144362.28;;;7.51;100.00
47530;BME280;33272;51.922;7.730;2023-05-24T00:39:50;144359.72;;;7.50;100.00
47530;BME280;33272;51.922;7.730;2023-05-24T00:42:19;144349.63;;;7.46;100.00
47530;BME280;33272;51.922;7.730;2023-05-24T00:44:46;144343.28;;;7.43;100.00
47530;BME280;33272;51.922;7.730;2023-05-24T00:47:13;144329.38;;;7.37;100.00
47530;BME280;33272;51.922;7.730;2023-05-24T00:49:41;144320.53;;;7.34;100.00
47530;BME280;33272;51.922;7.730;2023-05-24T00:52:08;144310.44;;;7.30;100.00
47530;BME280;33272;51.922;7.730;2023-05-24T00:54:35;144299.09;;;7.25;100.00
47530;BME280;33272;51.922;7.730;2023-05-24T00:57:03;144290.19;;;7.22;100.00
47530;BME280;33272;51.922;7.730;2023-05-24T00:59:32;144268.75;;;7.13;100.00
47530;BME280;33272;51.922;7.730;2023-05-24T01:01:59;144256.09;;;7.08;100.00
47530;BME280;33272;51.922;7.730;2023-05-24T01:04:26;144239.66;;;7.01;100.00
47530;BME280;33272;51.922;7.730;2023-05-24T01:07:06;144214.41;;;6.91;100.00
47530;BME280;33272;51.922;7.730;2023-05-24T01:09:50;144195.44;;;6.83;100.00
47530;BME280;33272;51.922;7.730;2023-05-24T01:12:28;144184.09;;;6.79;100.00
47530;BME280;33272;51.922;7.730;2023-05-24T01:15:10;144168.91;;;6.72;100.00
47530;BME280;33272;51.922;7.730;2023-05-24T01:17:50;144157.53;;;6.68;100.00
47530;BME280;33272;51.922;7.730;2023-05-24T01:20:20;144148.69;;;6.64;100.00
47530;BME280;33272;51.922;7.730;2023-05-24T01:23:14;144141.09;;;6.61;100.00
47530;BME280;33272;51.922;7.730;2023-05-24T01:26:02;144128.50;;;6.56;100.00
47530;BME280;33272;51.922;7.730;2023-05-24T01:28:35;144123.44;;;6.54;100.00
47530;BME280;33272;51.922;7.730;2023-05-24T01:31:04;144114.59;;;6.50;100.00
47530;BME280;33272;51.922;7.730;2023-05-24T01:33:32;144110.78;;;6.49;100.00
47530;BME280;33272;51.922;7.730;2023-05-24T01:35:59;144099.44;;;6.44;100.00
47530;BME280;33272;51.922;7.730;2023-05-24T01:38:25;144093.13;;;6.42;100.00
47530;BME280;33272;51.922;7.730;2023-05-24T01:41:04;144084.28;;;6.38;100.00
47530;BME280;33272;51.922;7.730;2023-05-24T01:43:39;144075.47;;;6.35;100.00
47530;BME280;33272;51.922;7.730;2023-05-24T01:46:15;144065.38;;;6.31;100.00
47530;BME280;33272;51.922;7.730;2023-05-24T01:48:56;144050.22;;;6.24;100.00
47530;BME280;33272;51.922;7.730;2023-05-24T01:51:30;144043.88;;;6.22;100.00
47530;BME280;33272;51.922;7.730;2023-05-24T01:54:04;144033.75;;;6.18;100.00
47530;BME280;33272;51.922;7.730;2023-05-24T01:56:32;144021.16;;;6.13;100.00
47530;BME280;33272;51.922;7.730;2023-05-24T01:59:01;144008.53;;;6.08;100.00
47530;BME280;33272;51.922;7.730;2023-05-24T02:01:29;144004.75;;;6.06;100.00
47530;BME280;33272;51.922;7.730;2023-05-24T02:03:57;143998.44;;;6.03;100.00
47530;BME280;33272;51.922;7.730;2023-05-24T02:06:24;143988.34;;;5.99;100.00
47530;BME280;33272;51.922;7.730;2023-05-24T02:08:51;143980.78;;;5.96;100.00
47530;BME280;33272;51.922;7.730;2023-05-24T02:11:18;143979.50;;;5.96;100.00
47530;BME280;33272;51.922;7.730;2023-05-24T02:13:45;143976.97;;;5.95;100.00
47530;BME280;33272;51.922;7.730;2023-05-24T02:16:14;143979.50;;;5.96;100.00
47530;BME280;33272;51.922;7.730;2023-05-24T02:18:42;143983.28;;;5.97;100.00
47530;BME280;33272;51.922;7.730;2023-05-24T02:21:11;143989.59;;;6.00;100.00
47530;BME280;33272;51.922;7.730;2023-05-24T02:23:38;143995.94;;;6.02;100.00
47530;BME280;33272;51.922;7.730;2023-05-24T02:26:05;143999.69;;;6.04;100.00
47530;BME280;33272;51.922;7.730;2023-05-24T02:28:36;144009.78;;;6.08;100.00
47530;BME280;33272;51.922;7.730;2023-05-24T02:31:03;144012.34;;;6.09;100.00
47530;BME280;33272;51.922;7.730;2023-05-24T02:33:32;144009.78;;;6.08;100.00
47530;BME280;33272;51.922;7.730;2023-05-24T02:35:59;144014.84;;;6.10;100.00
47530;BME280;33272;51.922;7.730;2023-05-24T02:38:26;144014.84;;;6.10;100.00
47530;BME280;33272;51.922;7.730;2023-05-24T02:40:54;144012.34;;;6.09;100.00
47530;BME280;33272;51.922;7.730;2023-05-24T02:43:21;144006.00;;;6.07;100.00
47530;BME280;33272;51.922;7.730;2023-05-24T02:45:47;143997.19;;;6.03;100.00
47530;BME280;33272;51.922;7.730;2023-05-24T02:48:14;143989.59;;;6.00;100.00
47530;BME280;33272;51.922;7.730;2023-05-24T02:50:43;143985.78;;;5.98;100.00
47530;BME280;33272;51.922;7.730;2023-05-24T02:53:10;143978.22;;;5.95;100.00
47530;BME280;33272;51.922;7.730;2023-05-24T02:55:37;143975.69;;;5.94;100.00
47530;BME280;33272;51.922;7.730;2023-05-24T02:58:04;143970.59;;;5.92;100.00
47530;BME280;33272;51.922;7.730;2023-05-24T03:00:32;143970.59;;;5.92;100.00
47530;BME280;33272;51.922;7.730;2023-05-24T03:03:00;143971.94;;;5.93;100.00
47530;BME280;33272;51.922;7.730;2023-05-24T03:05:28;143974.44;;;5.94;100.00
47530;BME280;33272;51.922;7.730;2023-05-24T03:07:56;143983.28;;;5.97;100.00
47530;BME280;33272;51.922;7.730;2023-05-24T03:10:23;143990.84;;;6.00;100.00
47530;BME280;33272;51.922;7.730;2023-05-24T03:12:50;143994.63;;;6.02;100.00
47530;BME280;33272;51.922;7.730;2023-05-24T03:15:17;144003.50;;;6.06;100.00
47530;BME280;33272;51.922;7.730;2023-05-24T03:17:44;144003.50;;;6.06;100.00
47530;BME280;33272;51.922;7.730;2023-05-24T03:20:11;144008.53;;;6.08;100.00
47530;BME280;33272;51.922;7.730;2023-05-24T03:22:40;143997.19;;;6.03;100.00
47530;BME280;33272;51.922;7.730;2023-05-24T03:25:09;143998.44;;;6.03;100.00
47530;BME280;33272;51.922;7.730;2023-05-24T03:27:36;144006.00;;;6.07;100.00
47530;BME280;33272;51.922;7.730;2023-05-24T03:30:05;144012.34;;;6.09;100.00
47530;BME280;33272;51.922;7.730;2023-05-24T03:32:32;144008.53;;;6.08;100.00
47530;BME280;33272;51.922;7.730;2023-05-24T03:34:59;144004.75;;;6.06;100.00
47530;BME280;33272;51.922;7.730;2023-05-24T03:37:26;144011.06;;;6.09;100.00
47530;BME280;33272;51.922;7.730;2023-05-24T03:39:53;144018.66;;;6.12;100.00
47530;BME280;33272;51.922;7.730;2023-05-24T03:42:21;144022.41;;;6.13;100.00
47530;BME280;33272;51.922;7.730;2023-05-24T03:44:48;144013.59;;;6.10;100.00
47530;BME280;33272;51.922;7.730;2023-05-24T03:47:15;144018.66;;;6.12;100.00
47530;BME280;33272;51.922;7.730;2023-05-24T03:49:42;144019.91;;;6.12;100.00
47530;BME280;33272;51.922;7.730;2023-05-24T03:52:09;144019.91;;;6.12;100.00
47530;BME280;33272;51.922;7.730;2023-05-24T03:54:36;144024.94;;;6.14;100.00
47530;BME280;33272;51.922;7.730;2023-05-24T03:57:03;144028.75;;;6.16;100.00
47530;BME280;33272;51.922;7.730;2023-05-24T03:59:32;144037.56;;;6.19;100.00
47530;BME280;33272;51.922;7.730;2023-05-24T04:01:59;144045.16;;;6.22;100.00
47530;BME280;33272;51.922;7.730;2023-05-24T04:04:26;144050.22;;;6.24;100.00
47530;BME280;33272;51.922;7.730;2023-05-24T04:06:53;144046.41;;;6.23;100.00
47530;BME280;33272;51.922;7.730;2023-05-24T04:09:21;144052.72;;;6.25;100.00
47530;BME280;33272;51.922;7.730;2023-05-24T04:11:48;144060.31;;;6.29;100.00
47530;BME280;33272;51.922;7.730;2023-05-24T04:14:15;144072.94;;;6.34;100.00
47530;BME280;33272;51.922;7.730;2023-05-24T04:16:43;144086.81;;;6.39;100.00
47530;BME280;33272;51.922;7.730;2023-05-24T04:19:11;144089.34;;;6.40;100.00
47530;BME280;33272;51.922;7.730;2023-05-24T04:21:38;144108.28;;;6.48;100.00
47530;BME280;33272;51.922;7.730;2023-05-24T04:24:06;144128.50;;;6.56;100.00
47530;BME280;33272;51.922;7.730;2023-05-24T04:26:33;144156.28;;;6.67;100.00
47530;BME280;33272;51.922;7.730;2023-05-24T04:29:02;144176.50;;;6.76;100.00
47530;BME280;33272;51.922;7.730;2023-05-24T04:31:29;144190.41;;;6.81;100.00
47530;BME280;33272;51.922;7.730;2023-05-24T04:33:59;144222.00;;;6.94;100.00
47530;BME280;33272;51.922;7.730;2023-05-24T04:36:26;144261.16;;;7.10;100.00
47530;BME280;33272;51.922;7.730;2023-05-24T04:38:56;144290.19;;;7.22;100.00
47530;BME280;33272;51.922;7.730;2023-05-24T04:41:27;144333.19;;;7.39;100.00
47530;BME280;33272;51.922;7.730;2023-05-24T04:43:56;144381.22;;;7.58;100.00
47530;BME280;33272;51.922;7.730;2023-05-24T04:46:24;144434.31;;;7.80;100.00
47530;BME280;33272;51.922;7.730;2023-05-24T04:48:51;144472.28;;;7.95;100.00
47530;BME280;33272;51.922;7.730;2023-05-24T04:51:20;144506.41;;;8.09;100.00
47530;BME280;33272;51.922;7.730;2023-05-24T04:53:48;144532.97;;;8.20;100.00
47530;BME280;33272;51.922;7.730;2023-05-24T04:56:14;144558.28;;;8.30;100.00
47530;BME280;33272;51.922;7.730;2023-05-24T04:58:42;144581.09;;;8.39;100.00
47530;BME280;33272;51.922;7.730;2023-05-24T05:01:09;144605.13;;;8.49;100.00
47530;BME280;33272;51.922;7.730;2023-05-24T05:03:36;144605.13;;;8.49;100.00
47530;BME280;33272;51.922;7.730;2023-05-24T05:06:03;144601.31;;;8.47;100.00
47530;BME280;33272;51.922;7.730;2023-05-24T05:08:31;144606.38;;;8.49;100.00
47530;BME280;33272;51.922;7.730;2023-05-24T05:10:58;144587.38;;;8.42;100.00
47530;BME280;33272;51.922;7.730;2023-05-24T05:13:25;144596.28;;;8.45;100.00
47530;BME280;33272;51.922;7.730;2023-05-24T05:15:52;144600.06;;;8.47;100.00
47530;BME280;33272;51.922;7.730;2023-05-24T05:18:19;144608.91;;;8.50;100.00
47530;BME280;33272;51.922;7.730;2023-05-24T05:20:46;144616.50;;;8.53;100.00
47530;BME280;33272;51.922;7.730;2023-05-24T05:23:13;144649.38;;;8.67;100.00
47530;BME280;33272;51.922;7.730;2023-05-24T05:25:41;144673.47;;;8.76;100.00
47530;BME280;33272;51.922;7.730;2023-05-24T05:28:08;144668.38;;;8.74;100.00
47530;BME280;33272;51.922;7.730;2023-05-24T05:30:35;144697.50;;;8.86;100.00
47530;BME280;33272;51.922;7.730;2023-05-24T05:33:02;144725.31;;;8.97;100.00
47530;BME280;33272;51.922;7.730;2023-05-24T05:35:30;144765.81;;;9.14;100.00
47530;BME280;33272;51.922;7.730;2023-05-24T05:37:58;144798.78;;;9.27;100.00
47530;BME280;33272;51.922;7.730;2023-05-24T05:40:25;144820.25;;;9.36;100.00
47530;BME280;33272;51.922;7.730;2023-05-24T05:42:53;144855.75;;;9.50;100.00
47530;BME280;33272;51.922;7.730;2023-05-24T05:45:20;144913.97;;;9.73;100.00
47530;BME280;33272;51.922;7.730;2023-05-24T05:47:47;144983.63;;;10.02;100.00
47530;BME280;33272;51.922;7.730;2023-05-24T05:50:14;145062.25;;;10.33;100.00
47530;BME280;33272;51.922;7.730;2023-05-24T05:52:41;145163.63;;;10.74;100.00
47530;BME280;33272;51.922;7.730;2023-05-24T05:55:09;145305.63;;;11.31;100.00
47530;BME280;33272;51.922;7.730;2023-05-24T05:57:37;145446.47;;;11.88;100.00
47530;BME280;33272;51.922;7.730;2023-05-24T06:00:07;145489.66;;;12.05;100.00
47530;BME280;33272;51.922;7.730;2023-05-24T06:02:34;145451.56;;;11.90;100.00
47530;BME280;33272;51.922;7.730;2023-05-24T06:05:01;145471.91;;;11.98;100.00
47530;BME280;33272;51.922;7.730;2023-05-24T06:07:28;145454.09;;;11.91;100.00
47530;BME280;33272;51.922;7.730;2023-05-24T06:09:56;145456.66;;;11.92;100.00
47530;BME280;33272;51.922;7.730;2023-05-24T06:12:23;145410.94;;;11.74;100.00
47530;BME280;33272;51.922;7.730;2023-05-24T06:14:50;145427.44;;;11.80;100.00
47530;BME280;33272;51.922;7.730;2023-05-24T06:17:18;145449.06;;;11.89;100.00
47530;BME280;33272;51.922;7.730;2023-05-24T06:19:48;145504.88;;;12.12;100.00
47530;BME280;33272;51.922;7.730;2023-05-24T06:22:16;145539.13;;;12.25;100.00
47530;BME280;33272;51.922;7.730;2023-05-24T06:24:43;145579.72;;;12.42;100.00
47530;BME280;33272;51.922;7.730;2023-05-24T06:27:10;145630.53;;;12.62;100.00
47530;BME280;33272;51.922;7.730;2023-05-24T06:29:37;145673.69;;;12.80;100.00
47530;BME280;33272;51.922;7.730;2023-05-24T06:32:05;145721.97;;;12.99;100.00
47530;BME280;33272;51.922;7.730;2023-05-24T06:34:33;145746.09;;;13.09;100.00
47530;BME280;33272;51.922;7.730;2023-05-24T06:37:00;145728.28;;;13.02;100.00
47530;BME280;33272;51.922;7.730;2023-05-24T06:39:27;145744.84;;;13.08;100.00
47530;BME280;33272;51.922;7.730;2023-05-24T06:41:54;145718.13;;;12.97;100.00
47530;BME280;33272;51.922;7.730;2023-05-24T06:44:21;145685.13;;;12.84;100.00
47530;BME280;33272;51.922;7.730;2023-05-24T06:46:48;145672.41;;;12.79;100.00
47530;BME280;33272;51.922;7.730;2023-05-24T06:49:16;145729.59;;;13.02;100.00
47530;BME280;33272;51.922;7.730;2023-05-24T06:51:45;145793.16;;;13.28;100.00
47530;BME280;33272;51.922;7.730;2023-05-24T06:54:12;145851.56;;;13.51;100.00
47530;BME280;33272;51.922;7.730;2023-05-24T06:56:38;145888.44;;;13.66;100.00
47530;BME280;33272;51.922;7.730;2023-05-24T06:59:05;145931.59;;;13.83;100.00
47530;BME280;33272;51.922;7.730;2023-05-24T07:01:33;145951.97;;;13.91;100.00
47530;BME280;33272;51.922;7.730;2023-05-24T07:04:00;145955.75;;;13.93;100.00
47530;BME280;33272;51.922;7.730;2023-05-24T07:06:27;145951.97;;;13.91;100.00
47530;BME280;33272;51.922;7.730;2023-05-24T07:08:56;145965.94;;;13.97;100.00
47530;BME280;33272;51.922;7.730;2023-05-24T07:11:23;145953.22;;;13.92;100.00
47530;BME280;33272;51.922;7.730;2023-05-24T07:13:50;145958.31;;;13.94;100.00
47530;BME280;33272;51.922;7.730;2023-05-24T07:16:17;145993.88;;;14.08;100.00
47530;BME280;33272;51.922;7.730;2023-05-24T07:18:44;145972.31;;;14.00;100.00
47530;BME280;33272;51.922;7.730;2023-05-24T07:21:11;146018.03;;;14.18;100.00
47530;BME280;33272;51.922;7.730;2023-05-24T07:23:38;146084.16;;;14.45;100.00
47530;BME280;33272;51.922;7.730;2023-05-24T07:26:06;146131.25;;;14.64;100.00
47530;BME280;33272;51.922;7.730;2023-05-24T07:28:33;146179.59;;;14.83;100.00
47530;BME280;33272;51.922;7.730;2023-05-24T07:31:02;146193.59;;;14.89;100.00
47530;BME280;33272;51.922;7.730;2023-05-24T07:33:30;146225.38;;;15.01;100.00
47530;BME280;33272;51.922;7.730;2023-05-24T07:35:57;146278.81;;;15.23;100.00
47530;BME280;33272;51.922;7.730;2023-05-24T07:38:24;146294.09;;;15.29;99.69
47530;BME280;33272;51.922;7.730;2023-05-24T07:40:51;146240.66;;;15.07;100.00
47530;BME280;33272;51.922;7.730;2023-05-24T07:43:19;146199.94;;;14.91;100.00
47530;BME280;33272;51.922;7.730;2023-05-24T07:45:46;146126.16;;;14.62;100.00
47530;BME280;33272;51.922;7.730;2023-05-24T07:48:13;146112.16;;;14.56;100.00
47530;BME280;33272;51.922;7.730;2023-05-24T07:50:40;146077.81;;;14.42;97.83
47530;BME280;33272;51.922;7.730;2023-05-24T07:53:13;146002.78;;;14.12;100.00
47530;BME280;33272;51.922;7.730;2023-05-24T07:55:40;145988.84;;;14.06;100.00
47530;BME280;33272;51.922;7.730;2023-05-24T07:58:07;145944.34;;;13.88;99.97
47530;BME280;33272;51.922;7.730;2023-05-24T08:00:35;146004.09;;;14.12;100.00
47530;BME280;33272;51.922;7.730;2023-05-24T08:03:02;145946.84;;;13.89;100.00
47530;BME280;33272;51.922;7.730;2023-05-24T08:05:30;146004.09;;;14.12;100.00
47530;BME280;33272;51.922;7.730;2023-05-24T08:07:57;146005.34;;;14.13;100.00
47530;BME280;33272;51.922;7.730;2023-05-24T08:10:24;146026.94;;;14.22;99.91
47530;BME280;33272;51.922;7.730;2023-05-24T08:12:52;146058.75;;;14.34;99.70
47530;BME280;33272;51.922;7.730;2023-05-24T08:15:20;146094.31;;;14.49;99.66
47530;BME280;33272;51.922;7.730;2023-05-24T08:17:49;146091.78;;;14.48;98.29
47530;BME280;33272;51.922;7.730;2023-05-24T08:20:16;146110.91;;;14.55;98.16
47530;BME280;33272;51.922;7.730;2023-05-24T08:22:43;146110.91;;;14.55;98.11
47530;BME280;33272;51.922;7.730;2023-05-24T08:25:10;146122.38;;;14.60;97.53
47530;BME280;33272;51.922;7.730;2023-05-24T08:27:37;146156.69;;;14.74;97.78
47530;BME280;33272;51.922;7.730;2023-05-24T08:30:06;146207.59;;;14.94;97.04
47530;BME280;33272;51.922;7.730;2023-05-24T08:32:33;146216.47;;;14.98;96.22
47530;BME280;33272;51.922;7.730;2023-05-24T08:35:02;146227.91;;;15.02;96.21
47530;BME280;33272;51.922;7.730;2023-05-24T08:37:29;146236.81;;;15.06;95.43
47530;BME280;33272;51.922;7.730;2023-05-24T08:39:57;146220.28;;;14.99;95.38
47530;BME280;33272;51.922;7.730;2023-05-24T08:42:24;146264.81;;;15.17;95.34
47530;BME280;33272;51.922;7.730;2023-05-24T08:45:02;146268.59;;;15.19;94.51
47530;BME280;33272;51.922;7.730;2023-05-24T08:47:30;146294.09;;;15.29;95.02
47530;BME280;33272;51.922;7.730;2023-05-24T08:49:58;146300.41;;;15.32;94.13
47530;BME280;33272;51.922;7.730;2023-05-24T08:52:28;146280.09;;;15.23;93.94
47530;BME280;33272;51.922;7.730;2023-05-24T08:54:57;146281.34;;;15.24;94.34
47530;BME280;33272;51.922;7.730;2023-05-24T08:57:25;146271.19;;;15.20;93.84
47530;BME280;33272;51.922;7.730;2023-05-24T08:59:53;146255.91;;;15.14;93.97
47530;BME280;33272;51.922;7.730;2023-05-24T09:02:21;146267.34;;;15.18;94.18
47530;BME280;33272;51.922;7.730;2023-05-24T09:04:51;146291.50;;;15.28;94.03
47530;BME280;33272;51.922;7.730;2023-05-24T09:07:20;146324.59;;;15.41;93.50
47530;BME280;33272;51.922;7.730;2023-05-24T09:09:56;146353.88;;;15.53;92.56
47530;BME280;33272;51.922;7.730;2023-05-24T09:12:23;146374.25;;;15.61;92.84
47530;BME280;33272;51.922;7.730;2023-05-24T09:14:53;146360.22;;;15.56;92.25
47530;BME280;33272;51.922;7.730;2023-05-24T09:17:20;146366.59;;;15.58;92.71
47530;BME280;33272;51.922;7.730;2023-05-24T09:19:50;146343.69;;;15.49;92.80
47530;BME280;33272;51.922;7.730;2023-05-24T09:22:18;146322.06;;;15.40;92.91
47530;BME280;33272;51.922;7.730;2023-05-24T09:24:49;146303.00;;;15.33;93.29
47530;BME280;33272;51.922;7.730;2023-05-24T09:27:16;146278.81;;;15.23;93.07
47530;BME280;33272;51.922;7.730;2023-05-24T09:29:46;146247.03;;;15.10;92.73
47530;BME280;33272;51.922;7.730;2023-05-24T09:32:14;146248.28;;;15.11;92.75
47530;BME280;33272;51.922;7.730;2023-05-24T09:34:42;146273.72;;;15.21;92.10
47530;BME280;33272;51.922;7.730;2023-05-24T09:37:13;146322.06;;;15.40;91.73
47530;BME280;33272;51.922;7.730;2023-05-24T09:39:42;146367.88;;;15.59;90.69
47530;BME280;33272;51.922;7.730;2023-05-24T09:42:15;146451.94;;;15.92;90.20
47530;BME280;33272;51.922;7.730;2023-05-24T09:44:45;146544.84;;;16.30;89.22
47530;BME280;33272;51.922;7.730;2023-05-24T09:47:12;146631.44;;;16.64;88.68
47530;BME280;33272;51.922;7.730;2023-05-24T09:49:40;146626.38;;;16.62;85.42
47530;BME280;33272;51.922;7.730;2023-05-24T09:52:08;146656.94;;;16.75;87.26
47530;BME280;33272;51.922;7.730;2023-05-24T09:54:39;146603.44;;;16.53;84.60
47530;BME280;33272;51.922;7.730;2023-05-24T09:57:07;146584.31;;;16.45;86.93
47530;BME280;33272;51.922;7.730;2023-05-24T09:59:39;146591.94;;;16.49;86.90
47530;BME280;33272;51.922;7.730;2023-05-24T10:02:08;146605.97;;;16.54;87.15
47530;BME280;33272;51.922;7.730;2023-05-24T10:04:36;146599.59;;;16.52;86.82
47530;BME280;33272;51.922;7.730;2023-05-24T10:07:04;146593.28;;;16.49;87.61
47530;BME280;33272;51.922;7.730;2023-05-24T10:09:31;146585.63;;;16.46;87.83
47530;BME280;33272;51.922;7.730;2023-05-24T10:12:02;146551.22;;;16.32;85.54
47530;BME280;33272;51.922;7.730;2023-05-24T10:14:31;146532.13;;;16.25;87.42
47530;BME280;33272;51.922;7.730;2023-05-24T10:17:02;146490.09;;;16.08;87.95
47530;BME280;33272;51.922;7.730;2023-05-24T10:19:30;146446.84;;;15.90;87.83
47530;BME280;33272;51.922;7.730;2023-05-24T10:21:57;146416.28;;;15.78;88.54
47530;BME280;33272;51.922;7.730;2023-05-24T10:24:31;146389.56;;;15.67;88.85
47530;BME280;33272;51.922;7.730;2023-05-24T10:27:00;146369.13;;;15.59;89.01
47530;BME280;33272;51.922;7.730;2023-05-24T10:29:41;146353.88;;;15.53;89.13
47530;BME280;33272;51.922;7.730;2023-05-24T10:32:13;146329.69;;;15.43;88.98
47530;BME280;33272;51.922;7.730;2023-05-24T10:34:41;146319.53;;;15.39;89.72
47530;BME280;33272;51.922;7.730;2023-05-24T10:37:09;146328.44;;;15.43;89.76
47530;BME280;33272;51.922;7.730;2023-05-24T10:39:36;146344.97;;;15.49;89.26
47530;BME280;33272;51.922;7.730;2023-05-24T10:42:05;146381.88;;;15.64;89.18
47530;BME280;33272;51.922;7.730;2023-05-24T10:44:32;146441.72;;;15.88;88.85
47530;BME280;33272;51.922;7.730;2023-05-24T10:47:07;146524.50;;;16.21;88.28
47530;BME280;33272;51.922;7.730;2023-05-24T10:49:36;146589.41;;;16.48;86.20
47530;BME280;33272;51.922;7.730;2023-05-24T10:52:08;146600.91;;;16.52;85.14
47530;BME280;33272;51.922;7.730;2023-05-24T10:54:35;146646.72;;;16.71;85.58
47530;BME280;33272;51.922;7.730;2023-05-24T10:57:05;146655.69;;;16.74;84.49
47530;BME280;33272;51.922;7.730;2023-05-24T10:59:34;146662.06;;;16.77;83.74
47530;BME280;33272;51.922;7.730;2023-05-24T11:02:06;146663.38;;;16.77;83.63
47530;BME280;33272;51.922;7.730;2023-05-24T11:04:40;146635.28;;;16.66;84.62
47530;BME280;33272;51.922;7.730;2023-05-24T11:07:09;146590.69;;;16.48;85.29
47530;BME280;33272;51.922;7.730;2023-05-24T11:09:38;146534.66;;;16.26;85.93
47530;BME280;33272;51.922;7.730;2023-05-24T11:12:15;146507.94;;;16.15;86.76
47530;BME280;33272;51.922;7.730;2023-05-24T11:14:47;146499.03;;;16.11;86.55
47530;BME280;33272;51.922;7.730;2023-05-24T11:17:15;146490.09;;;16.08;86.63
47530;BME280;33272;51.922;7.730;2023-05-24T11:19:49;146483.75;;;16.05;86.58
47530;BME280;33272;51.922;7.730;2023-05-24T11:22:18;146479.91;;;16.04;86.69
47530;BME280;33272;51.922;7.730;2023-05-24T11:24:46;146485.03;;;16.06;86.56
47530;BME280;33272;51.922;7.730;2023-05-24T11:27:13;146406.09;;;15.74;86.63
47530;BME280;33272;51.922;7.730;2023-05-24T11:29:42;146411.16;;;15.76;86.23
47530;BME280;33272;51.922;7.730;2023-05-24T11:32:13;146388.31;;;15.67;86.61
47530;BME280;33272;51.922;7.730;2023-05-24T11:34:41;146408.63;;;15.75;87.04
47530;BME280;33272;51.922;7.730;2023-05-24T11:37:12;146434.09;;;15.85;86.62
47530;BME280;33272;51.922;7.730;2023-05-24T11:39:40;146458.25;;;15.95;86.48
47530;BME280;33272;51.922;7.730;2023-05-24T11:42:08;146504.09;;;16.13;85.55
47530;BME280;33272;51.922;7.730;2023-05-24T11:44:36;146510.47;;;16.16;85.31
47530;BME280;33272;51.922;7.730;2023-05-24T11:47:06;146542.31;;;16.29;85.68
47530;BME280;33272;51.922;7.730;2023-05-24T11:49:34;146585.63;;;16.46;85.13
47530;BME280;33272;51.922;7.730;2023-05-24T11:52:01;146650.56;;;16.72;84.37
47530;BME280;33272;51.922;7.730;2023-05-24T11:54:29;146662.06;;;16.77;83.38
47530;BME280;33272;51.922;7.730;2023-05-24T11:56:58;146671.00;;;16.80;83.59
47530;BME280;33272;51.922;7.730;2023-05-24T11:59:26;146692.63;;;16.89;82.77
47530;BME280;33272;51.922;7.730;2023-05-24T12:01:57;146733.41;;;17.05;82.75
47530;BME280;33272;51.922;7.730;2023-05-24T12:04:26;146772.91;;;17.21;83.43
47530;BME280;33272;51.922;7.730;2023-05-24T12:06:53;146800.94;;;17.32;83.57
47530;BME280;33272;51.922;7.730;2023-05-24T12:09:21;146820.03;;;17.40;83.17
47530;BME280;33272;51.922;7.730;2023-05-24T12:11:50;146848.09;;;17.51;82.72
47530;BME280;33272;51.922;7.730;2023-05-24T12:14:19;146841.72;;;17.49;82.66
47530;BME280;33272;51.922;7.730;2023-05-24T12:16:48;146850.63;;;17.52;82.25
47530;BME280;33272;51.922;7.730;2023-05-24T12:19:16;146803.47;;;17.33;81.32
47530;BME280;33272;51.922;7.730;2023-05-24T12:21:45;146806.06;;;17.34;82.04
47530;BME280;33272;51.922;7.730;2023-05-24T12:24:14;146763.97;;;17.18;81.81
47530;BME280;33272;51.922;7.730;2023-05-24T12:26:42;146752.53;;;17.13;81.96
47530;BME280;33272;51.922;7.730;2023-05-24T12:29:12;146774.22;;;17.22;81.39
47530;BME280;33272;51.922;7.730;2023-05-24T12:31:40;146744.88;;;17.10;80.78
47530;BME280;33272;51.922;7.730;2023-05-24T12:34:11;146707.91;;;16.95;80.84
47530;BME280;33272;51.922;7.730;2023-05-24T12:36:38;146701.53;;;16.92;81.17
47530;BME280;33272;51.922;7.730;2023-05-24T12:39:21;146655.69;;;16.74;78.61
47530;BME280;33272;51.922;7.730;2023-05-24T12:41:53;146653.09;;;16.73;81.39
47530;BME280;33272;51.922;7.730;2023-05-24T12:44:24;146671.00;;;16.80;81.68
47530;BME280;33272;51.922;7.730;2023-05-24T12:46:52;146716.84;;;16.99;82.28
47530;BME280;33272;51.922;7.730;2023-05-24T12:49:20;146747.41;;;17.11;81.15
47530;BME280;33272;51.922;7.730;2023-05-24T12:51:47;146738.50;;;17.07;80.25
47530;BME280;33272;51.922;7.730;2023-05-24T12:54:16;146755.06;;;17.14;80.62